富山空港の過去48時間の天気

富山空港 (Toyama)

現在時刻: 11/13 17:24 JST (11/13 08:24 UTC) 以下の時間は現地時間です。

過去48時間のMETAR気象情報
時間 風向 風速(m/s) 視程 気温(℃) 湿度(%) 気圧(hPa) 天気現象
13 17:00 西 2 10km以上 15 72 1013
13 16:00 北東 2 10km以上 17 55 1014
13 15:00 西 3 10km以上 19 46 1014
13 14:00 北北西 3 10km以上 19 49 1014
13 13:00 不定 2 10km以上 18 49 1015
13 12:00 西北西 2 10km以上 17 52 1017
13 11:00 北西 2 10km以上 16 55 1018
13 10:00 西 2 10km以上 15 59 1019
13 09:00 南南西 2 10km以上 13 62 1020
13 08:00 2 10km以上 11 67 1020
13 07:00 静穏 0 10km以上 9 76 1021
13 06:10 西南西 1 10km以上 7 87 1022
12 21:00 不定 1 10km以上 10 87 1021
12 20:00 不定 1 10km以上 10 87 1021
12 19:00 2 10km以上 11 87 1021
12 18:00 3 10km以上 12 82 1020
12 17:00 2 10km以上 14 67 1020
12 16:00 3 10km以上 16 51 1019
12 15:00 4 10km以上 17 48 1018
12 14:00 北北西 2 10km以上 17 48 1018
12 13:00 北北東 2 10km以上 17 52 1018
12 12:00 3 10km以上 17 52 1018 弱いしゅう雨
12 11:00 北北西 3 10km以上 16 59 1019 弱いしゅう雨
12 10:00 北西 2 10km以上 16 63 1019
12 09:00 南西 2 10km以上 16 77 1018
12 08:00 不定 1 10km以上 13 94 1017
12 07:00 南西 2 10km以上 12 94 1016 弱いしゅう雨
12 06:10 南南西 2 10km以上 12 94 1015 周辺でしゅう雨
11 21:09 不定 2 7000m 13 88 1009 しゅう雨
11 21:00 南南西 3 4000m 13 88 1009 しゅう雨 もや
11 20:48 南南西 4 7000m 13 88 1009 しゅう雨
11 20:28 5 10km以上 13 82 1009 弱い雷雨
11 20:12 6 10km以上 13 82 1008 弱いしゅう雨
11 20:00 南南西 7 10km以上 13 82 1008 しゅう雨
11 19:09 西南西 5 8000m 14 77 1008 弱いしゅう雨
11 19:00 4 10km以上 14 77 1007 弱いしゅう雨
11 18:00 3 10km以上 13 88 1007 弱いしゅう雨
11 17:43 2 10km以上 13 88 1006 弱いしゅう雨
RJNT 130800Z 28003KT 210V310 9999 FEW040 SCT130 BKN140 15/10 Q1013
RJNT 130700Z 04003KT 350V090 9999 FEW040 SCT130 BKN/// 17/08 Q1014
RJNT 130600Z 27006KT 230V310 9999 FEW040 BKN/// 19/07 Q1014
RJNT 130500Z 34006KT 300V010 9999 FEW040 19/08 Q1014
RJNT 130400Z VRB03KT 9999 FEW040 18/07 Q1015
RJNT 130300Z 30003KT 230V030 9999 FEW040 17/07 Q1017
RJNT 130200Z 31004KT 260V350 9999 FEW040 16/07 Q1018
RJNT 130100Z 26003KT 230V300 9999 FEW040 15/07 Q1019
RJNT 130000Z 20004KT 9999 FEW040 13/06 Q1020
RJNT 122300Z 17004KT 110V250 9999 FEW040 11/05 Q1020
RJNT 122200Z 00000KT 9999 FEW020 09/05 Q1021
RJNT 122110Z 25001KT 9999 FEW020 07/05 Q1022 RMK 1CU020 A3018
RJNT 121200Z VRB02KT 9999 FEW040 SCT190 BKN/// 10/08 Q1021
RJNT 121100Z VRB02KT 9999 FEW040 BKN/// 10/08 Q1021
RJNT 121000Z 18003KT 9999 FEW040 BKN/// 11/09 Q1021
RJNT 120900Z 19005KT 9999 FEW040 12/09 Q1020
RJNT 120800Z 01004KT 9999 FEW040 14/08 Q1020
RJNT 120700Z 01006KT 9999 FEW040 16/06 Q1019
RJNT 120600Z 36007KT 9999 FEW040 17/06 Q1018
RJNT 120500Z 34004KT 260V060 9999 FEW040 17/06 Q1018
RJNT 120400Z 02004KT 320V090 9999 FEW030 17/07 Q1018
RJNT 120300Z 35006KT 310V020 9999 -SHRA FEW020 SCT040 17/07 Q1018
RJNT 120200Z 33006KT 290V360 9999 -SHRA FEW020TCU SCT035 16/08 Q1019
RJNT 120100Z 31004KT 290V350 9999 FEW015 SCT030 16/09 Q1019
RJNT 120000Z 22003KT 180V270 9999 FEW010 16/12 Q1018
RJNT 112300Z VRB01KT 9999 FEW005 13/12 Q1017
RJNT 112200Z 22003KT 9999 -SHRA FEW005 BKN030 12/11 Q1016
RJNT 112110Z 20003KT 9999 VCSH FEW010 BKN025 12/11 Q1015 RMK 1ST010 5CU025 A2999
RJNT 111209Z VRB03KT 7000 SHRA FEW015CB SCT025 BKN035 13/11 Q1009 RMK 1CB015 4CU025 7CU035 A2981 CB 20KM NW MOV E
RJNT 111200Z 21005KT 170V250 4000 SHRA BR FEW015CB BKN025 BKN035 13/11 Q1009
RJNT 111148Z 20007KT 170V230 7000 SHRA FEW015CB BKN030 BKN040 13/11 Q1009 RMK 1CB015 5CU030 7CU040 A2980 CB 15KM W MOV NE
RJNT 111128Z 18009KT 150V210 9999 -TSRA FEW015CB BKN030 BKN045 13/10 Q1009 RMK 1CB015 5CU030 7SC045 A2979 FBL TS 10KM W-NW MOV NE
RJNT 111112Z 19011KT 9999 -SHRA FEW015 SCT030 BKN045 13/10 Q1008 RMK 1CU015 3CU030 7SC045 A2978
RJNT 111100Z 21013KT 9999 SHRA FEW015TCU SCT030 BKN050 13/10 Q1008
RJNT 111009Z 24010KT 210V280 8000 -SHRA FEW010 FEW015CB SCT030 BKN050 14/10 Q1008 RMK 1CU010 1CB015 4CU030 7SC050 A2977 CB 15KM N MOV NE
RJNT 111000Z 18007KT 130V220 9999 -SHRA FEW020CB SCT030 BKN050 14/10 Q1007
RJNT 110900Z VRB05KT 9999 -SHRA FEW015 SCT030 BKN050 13/11 Q1007
RJNT 110843Z 18003KT 110V240 9999 -SHRA FEW004 FEW020CB SCT030 BKN050 13/11 Q1006 RMK 1ST004 1CB020 3CU030 6SC050 A2973 CB 15KM N MOV NE